Delta Virtual Airport Information Service

La Paz El Alto International Airport

ICAO: SLLP Country: Bolivia
Latitude: -16.5133 Longitude: -68.1922
Latest Arrival : DAC609 (MGGT-SLLP) Latest Departure : DAC455 (SLLP-SPJC)


WX CaptureLIVE
Data provided by noaa.gov | Fetched at 05:53:47

METAR : SLLP 271000Z 13006KT 4000E VCFG FEW002 SCT010 BKN200 07/06 Q1034

TAF : SLLP 271000Z 13006KT 4000E VCFG FEW002 SCT010 BKN200 07/06 Q1034


Runway Data for SLLP
Data provided by openaviationdata.com

Runway ID Mag Var Hdg Length Elevation Surface ILS Freq ILS Id ILS Slope
10 -5 96° 13116 ft 13253 ft Concrete 110.3 ILPA 2
28 -5 276° 13116 ft 13253 ft Concrete -- -- --

La Paz El Alto International Airport, Bolivia
Use only for reference purposes



Not for navigational purposes.